sensor_id;sensor_type;location;lat;lon;timestamp;pressure;altitude;pressure_sealevel;temperature;humidity
51315;BME280;65787;59.922;10.742;2023-11-19T00:00:46;101254.59;;;-0.60;41.39
51315;BME280;65787;59.922;10.742;2023-11-19T00:03:12;101262.31;;;-0.56;41.17
51315;BME280;65787;59.922;10.742;2023-11-19T00:05:38;101252.72;;;-0.57;40.99
51315;BME280;65787;59.922;10.742;2023-11-19T00:08:03;101244.81;;;-0.57;40.37
51315;BME280;65787;59.922;10.742;2023-11-19T00:10:30;101249.88;;;-0.54;40.27
51315;BME280;65787;59.922;10.742;2023-11-19T00:12:56;101249.88;;;-0.54;41.07
51315;BME280;65787;59.922;10.742;2023-11-19T00:15:22;101238.38;;;-0.53;40.66
51315;BME280;65787;59.922;10.742;2023-11-19T00:17:49;101239.22;;;-0.53;40.54
51315;BME280;65787;59.922;10.742;2023-11-19T00:20:16;101230.25;;;-0.50;40.98
51315;BME280;65787;59.922;10.742;2023-11-19T00:22:42;101230.56;;;-0.55;40.32
51315;BME280;65787;59.922;10.742;2023-11-19T00:25:08;101232.38;;;-0.55;40.91
51315;BME280;65787;59.922;10.742;2023-11-19T00:27:34;101219.38;;;-0.59;41.14
51315;BME280;65787;59.922;10.742;2023-11-19T00:29:59;101219.38;;;-0.59;40.51
51315;BME280;65787;59.922;10.742;2023-11-19T00:32:27;101204.38;;;-0.58;41.03
51315;BME280;65787;59.922;10.742;2023-11-19T00:34:52;101204.38;;;-0.58;40.92
51315;BME280;65787;59.922;10.742;2023-11-19T00:37:17;101215.66;;;-0.56;40.58
51315;BME280;65787;59.922;10.742;2023-11-19T00:39:43;101203.53;;;-0.59;41.27
51315;BME280;65787;59.922;10.742;2023-11-19T00:42:11;101192.88;;;-0.57;40.45
51315;BME280;65787;59.922;10.742;2023-11-19T00:44:36;101193.81;;;-0.58;40.71
51315;BME280;65787;59.922;10.742;2023-11-19T00:47:02;101186.78;;;-0.57;41.32
51315;BME280;65787;59.922;10.742;2023-11-19T00:49:27;101181.59;;;-0.59;41.07
51315;BME280;65787;59.922;10.742;2023-11-19T00:51:53;101181.50;;;-0.57;40.60
51315;BME280;65787;59.922;10.742;2023-11-19T00:54:18;101178.00;;;-0.58;40.78
51315;BME280;65787;59.922;10.742;2023-11-19T00:56:43;101179.69;;;-0.57;40.94
51315;BME280;65787;59.922;10.742;2023-11-19T00:59:09;101183.19;;;-0.56;40.59
51315;BME280;65787;59.922;10.742;2023-11-19T01:01:35;101169.88;;;-0.55;41.35
51315;BME280;65787;59.922;10.742;2023-11-19T01:04:00;101167.06;;;-0.52;41.22
51315;BME280;65787;59.922;10.742;2023-11-19T01:06:29;101169.38;;;-0.47;40.76
51315;BME280;65787;59.922;10.742;2023-11-19T01:08:54;101165.56;;;-0.43;40.68
51315;BME280;65787;59.922;10.742;2023-11-19T01:11:20;101163.25;;;-0.35;41.29
51315;BME280;65787;59.922;10.742;2023-11-19T01:13:46;101165.47;;;-0.29;40.87
51315;BME280;65787;59.922;10.742;2023-11-19T01:16:11;101161.34;;;-0.20;40.72
51315;BME280;65787;59.922;10.742;2023-11-19T01:18:38;101152.16;;;-0.14;40.92
51315;BME280;65787;59.922;10.742;2023-11-19T01:21:03;101152.44;;;-0.06;41.08
51315;BME280;65787;59.922;10.742;2023-11-19T01:23:28;101147.50;;;0.02;41.09
51315;BME280;65787;59.922;10.742;2023-11-19T01:25:55;101145.13;;;0.10;41.23
51315;BME280;65787;59.922;10.742;2023-11-19T01:28:20;101146.28;;;0.19;40.32
51315;BME280;65787;59.922;10.742;2023-11-19T01:30:45;101132.72;;;0.24;41.01
51315;BME280;65787;59.922;10.742;2023-11-19T01:33:11;101133.25;;;0.29;40.88
51315;BME280;65787;59.922;10.742;2023-11-19T01:35:36;101130.16;;;0.35;40.34
51315;BME280;65787;59.922;10.742;2023-11-19T01:38:01;101128.03;;;0.40;40.33
51315;BME280;65787;59.922;10.742;2023-11-19T01:40:27;101118.09;;;0.44;40.35
51315;BME280;65787;59.922;10.742;2023-11-19T01:42:52;101113.44;;;0.47;40.03
51315;BME280;65787;59.922;10.742;2023-11-19T01:45:22;101115.00;;;0.50;40.52
51315;BME280;65787;59.922;10.742;2023-11-19T01:47:47;101108.56;;;0.54;40.17
51315;BME280;65787;59.922;10.742;2023-11-19T01:50:12;101106.63;;;0.56;40.04
51315;BME280;65787;59.922;10.742;2023-11-19T01:52:39;101094.88;;;0.60;40.53
51315;BME280;65787;59.922;10.742;2023-11-19T01:55:04;101089.34;;;0.63;40.53
51315;BME280;65787;59.922;10.742;2023-11-19T01:57:30;101085.66;;;0.66;40.37
51315;BME280;65787;59.922;10.742;2023-11-19T01:59:55;101085.28;;;0.70;40.19
51315;BME280;65787;59.922;10.742;2023-11-19T02:02:22;101079.78;;;0.73;40.36
51315;BME280;65787;59.922;10.742;2023-11-19T02:04:49;101061.16;;;0.75;40.42
51315;BME280;65787;59.922;10.742;2023-11-19T02:07:14;101062.84;;;0.76;39.59
51315;BME280;65787;59.922;10.742;2023-11-19T02:09:42;101066.97;;;0.80;40.19
51315;BME280;65787;59.922;10.742;2023-11-19T02:12:08;101068.41;;;0.84;39.84
51315;BME280;65787;59.922;10.742;2023-11-19T02:14:36;101069.03;;;0.88;39.67
51315;BME280;65787;59.922;10.742;2023-11-19T02:17:02;101057.25;;;0.92;39.91
51315;BME280;65787;59.922;10.742;2023-11-19T02:19:27;101061.44;;;0.94;39.94
51315;BME280;65787;59.922;10.742;2023-11-19T02:21:54;101061.22;;;0.98;39.82
51315;BME280;65787;59.922;10.742;2023-11-19T02:24:21;101053.06;;;1.01;40.18
51315;BME280;65787;59.922;10.742;2023-11-19T02:29:16;101040.31;;;1.06;39.94
51315;BME280;65787;59.922;10.742;2023-11-19T02:31:41;101031.44;;;1.07;39.72
51315;BME280;65787;59.922;10.742;2023-11-19T02:34:06;101039.16;;;1.10;39.62
51315;BME280;65787;59.922;10.742;2023-11-19T02:36:32;101022.06;;;1.14;40.15
51315;BME280;65787;59.922;10.742;2023-11-19T02:38:57;101022.78;;;1.16;39.90
51315;BME280;65787;59.922;10.742;2023-11-19T02:41:23;101027.97;;;1.18;39.85
51315;BME280;65787;59.922;10.742;2023-11-19T02:43:48;101019.06;;;1.19;39.56
51315;BME280;65787;59.922;10.742;2023-11-19T02:46:14;101009.19;;;1.21;39.57
51315;BME280;65787;59.922;10.742;2023-11-19T02:48:39;101009.94;;;1.23;39.87
51315;BME280;65787;59.922;10.742;2023-11-19T02:51:05;101008.00;;;1.25;39.76
51315;BME280;65787;59.922;10.742;2023-11-19T02:53:34;101013.16;;;1.26;39.74
51315;BME280;65787;59.922;10.742;2023-11-19T02:56:00;101006.91;;;1.27;39.71
51315;BME280;65787;59.922;10.742;2023-11-19T02:58:37;100999.81;;;1.28;39.94
51315;BME280;65787;59.922;10.742;2023-11-19T03:01:02;100983.81;;;1.29;39.79
51315;BME280;65787;59.922;10.742;2023-11-19T03:03:37;100979.84;;;1.35;40.36
51315;BME280;65787;59.922;10.742;2023-11-19T03:06:07;100969.38;;;1.33;39.87
51315;BME280;65787;59.922;10.742;2023-11-19T03:08:35;100964.81;;;1.35;39.91
51315;BME280;65787;59.922;10.742;2023-11-19T03:11:00;100968.31;;;1.36;40.36
51315;BME280;65787;59.922;10.742;2023-11-19T03:13:26;100954.97;;;1.38;39.98
51315;BME280;65787;59.922;10.742;2023-11-19T03:15:52;100952.06;;;1.41;39.91
51315;BME280;65787;59.922;10.742;2023-11-19T03:18:17;100946.78;;;1.41;40.41
51315;BME280;65787;59.922;10.742;2023-11-19T03:20:43;100948.34;;;1.43;40.08
51315;BME280;65787;59.922;10.742;2023-11-19T03:23:09;100963.13;;;1.46;39.92
51315;BME280;65787;59.922;10.742;2023-11-19T03:25:34;100953.25;;;1.48;39.98
51315;BME280;65787;59.922;10.742;2023-11-19T03:28:01;100957.47;;;1.50;39.89
51315;BME280;65787;59.922;10.742;2023-11-19T03:30:29;100952.16;;;1.50;40.08
51315;BME280;65787;59.922;10.742;2023-11-19T03:32:56;100943.16;;;1.53;40.10
51315;BME280;65787;59.922;10.742;2023-11-19T03:35:21;100931.59;;;1.54;39.86
51315;BME280;65787;59.922;10.742;2023-11-19T03:37:47;100934.22;;;1.54;39.29
51315;BME280;65787;59.922;10.742;2023-11-19T03:40:12;100932.56;;;1.53;39.36
51315;BME280;65787;59.922;10.742;2023-11-19T03:42:38;100930.03;;;1.51;39.18
51315;BME280;65787;59.922;10.742;2023-11-19T03:45:05;100921.16;;;1.52;39.67
51315;BME280;65787;59.922;10.742;2023-11-19T03:47:31;100915.00;;;1.52;39.27
51315;BME280;65787;59.922;10.742;2023-11-19T03:49:57;100914.88;;;1.53;40.23
51315;BME280;65787;59.922;10.742;2023-11-19T03:52:22;100907.06;;;1.52;39.74
51315;BME280;65787;59.922;10.742;2023-11-19T03:54:48;100903.97;;;1.47;39.76
51315;BME280;65787;59.922;10.742;2023-11-19T03:57:14;100897.56;;;1.49;39.67
51315;BME280;65787;59.922;10.742;2023-11-19T03:59:40;100898.41;;;1.50;40.22
51315;BME280;65787;59.922;10.742;2023-11-19T04:02:06;100889.75;;;1.48;39.71
51315;BME280;65787;59.922;10.742;2023-11-19T04:04:31;100883.34;;;1.50;39.44
51315;BME280;65787;59.922;10.742;2023-11-19T04:06:57;100886.75;;;1.52;39.10
51315;BME280;65787;59.922;10.742;2023-11-19T04:09:23;100878.53;;;1.55;39.79
51315;BME280;65787;59.922;10.742;2023-11-19T04:11:48;100869.53;;;1.58;39.82
51315;BME280;65787;59.922;10.742;2023-11-19T04:14:13;100860.59;;;1.59;39.32
51315;BME280;65787;59.922;10.742;2023-11-19T04:16:39;100854.72;;;1.55;39.32
51315;BME280;65787;59.922;10.742;2023-11-19T04:19:05;100855.41;;;1.58;39.77
51315;BME280;65787;59.922;10.742;2023-11-19T04:21:31;100851.69;;;1.60;39.42
51315;BME280;65787;59.922;10.742;2023-11-19T04:23:57;100853.25;;;1.63;39.40
51315;BME280;65787;59.922;10.742;2023-11-19T04:26:22;100850.47;;;1.64;39.04
51315;BME280;65787;59.922;10.742;2023-11-19T04:28:47;100847.84;;;1.64;39.23
51315;BME280;65787;59.922;10.742;2023-11-19T04:31:14;100849.38;;;1.67;39.36
51315;BME280;65787;59.922;10.742;2023-11-19T04:33:41;100844.06;;;1.67;39.71
51315;BME280;65787;59.922;10.742;2023-11-19T04:36:06;100842.13;;;1.69;38.95
51315;BME280;65787;59.922;10.742;2023-11-19T04:38:32;100837.13;;;1.66;39.11
51315;BME280;65787;59.922;10.742;2023-11-19T04:40:57;100832.53;;;1.68;39.46
51315;BME280;65787;59.922;10.742;2023-11-19T04:43:22;100832.84;;;1.74;39.74
51315;BME280;65787;59.922;10.742;2023-11-19T04:45:48;100834.53;;;1.76;39.07
51315;BME280;65787;59.922;10.742;2023-11-19T04:48:13;100832.59;;;1.78;39.27
51315;BME280;65787;59.922;10.742;2023-11-19T04:50:39;100828.72;;;1.82;39.78
51315;BME280;65787;59.922;10.742;2023-11-19T04:53:04;100828.59;;;1.83;39.43
51315;BME280;65787;59.922;10.742;2023-11-19T04:55:29;100827.66;;;1.84;39.11
51315;BME280;65787;59.922;10.742;2023-11-19T04:57:55;100828.88;;;1.80;39.85
51315;BME280;65787;59.922;10.742;2023-11-19T05:00:20;100822.34;;;1.84;39.54
51315;BME280;65787;59.922;10.742;2023-11-19T05:02:46;100820.66;;;1.83;38.99
51315;BME280;65787;59.922;10.742;2023-11-19T05:05:12;100816.94;;;1.86;39.68
51315;BME280;65787;59.922;10.742;2023-11-19T05:07:37;100813.06;;;1.90;39.39
51315;BME280;65787;59.922;10.742;2023-11-19T05:10:03;100805.94;;;1.90;39.27
51315;BME280;65787;59.922;10.742;2023-11-19T05:12:29;100804.13;;;1.91;38.90
51315;BME280;65787;59.922;10.742;2023-11-19T05:14:54;100799.81;;;1.90;38.98
51315;BME280;65787;59.922;10.742;2023-11-19T05:17:20;100797.16;;;1.90;39.60
51315;BME280;65787;59.922;10.742;2023-11-19T05:19:45;100794.25;;;1.93;39.89
51315;BME280;65787;59.922;10.742;2023-11-19T05:22:12;100788.94;;;1.93;39.94
51315;BME280;65787;59.922;10.742;2023-11-19T05:24:38;100795.94;;;1.94;39.24
51315;BME280;65787;59.922;10.742;2023-11-19T05:27:04;100793.81;;;1.88;39.16
51315;BME280;65787;59.922;10.742;2023-11-19T05:29:30;100785.59;;;1.91;39.30
51315;BME280;65787;59.922;10.742;2023-11-19T05:31:55;100786.69;;;1.88;38.67
51315;BME280;65787;59.922;10.742;2023-11-19T05:34:20;100786.56;;;1.90;39.18
51315;BME280;65787;59.922;10.742;2023-11-19T05:36:46;100776.69;;;1.92;38.97
51315;BME280;65787;59.922;10.742;2023-11-19T05:39:11;100773.47;;;1.88;39.27
51315;BME280;65787;59.922;10.742;2023-11-19T05:41:37;100769.41;;;1.84;39.72
51315;BME280;65787;59.922;10.742;2023-11-19T05:44:02;100767.69;;;1.83;39.37
51315;BME280;65787;59.922;10.742;2023-11-19T05:46:27;100768.81;;;1.81;39.41
51315;BME280;65787;59.922;10.742;2023-11-19T05:48:53;100772.28;;;1.81;39.54
51315;BME280;65787;59.922;10.742;2023-11-19T05:51:18;100769.53;;;1.83;40.02
51315;BME280;65787;59.922;10.742;2023-11-19T05:53:44;100762.53;;;1.82;39.39
51315;BME280;65787;59.922;10.742;2023-11-19T05:56:10;100759.75;;;1.83;39.71
51315;BME280;65787;59.922;10.742;2023-11-19T05:58:36;100757.94;;;1.84;40.08
51315;BME280;65787;59.922;10.742;2023-11-19T06:01:02;100761.56;;;1.83;40.21
51315;BME280;65787;59.922;10.742;2023-11-19T06:03:28;100760.75;;;1.82;39.48
51315;BME280;65787;59.922;10.742;2023-11-19T06:05:53;100759.75;;;1.83;39.95
51315;BME280;65787;59.922;10.742;2023-11-19T06:08:19;100754.16;;;1.77;39.50
51315;BME280;65787;59.922;10.742;2023-11-19T06:10:46;100752.34;;;1.77;40.18
51315;BME280;65787;59.922;10.742;2023-11-19T06:13:12;100741.63;;;1.79;39.82
51315;BME280;65787;59.922;10.742;2023-11-19T06:15:37;100743.41;;;1.78;39.78
51315;BME280;65787;59.922;10.742;2023-11-19T06:18:03;100740.75;;;1.78;39.92
51315;BME280;65787;59.922;10.742;2023-11-19T06:20:32;100738.69;;;1.82;40.22
51315;BME280;65787;59.922;10.742;2023-11-19T06:22:57;100734.84;;;1.86;40.49
51315;BME280;65787;59.922;10.742;2023-11-19T06:25:23;100747.09;;;1.87;39.85
51315;BME280;65787;59.922;10.742;2023-11-19T06:27:49;100741.94;;;1.85;40.23
51315;BME280;65787;59.922;10.742;2023-11-19T06:30:14;100736.38;;;1.88;40.10
51315;BME280;65787;59.922;10.742;2023-11-19T06:32:40;100736.97;;;1.92;40.17
51315;BME280;65787;59.922;10.742;2023-11-19T06:35:05;100736.25;;;1.90;40.05
51315;BME280;65787;59.922;10.742;2023-11-19T06:37:31;100740.25;;;1.84;40.28
51315;BME280;65787;59.922;10.742;2023-11-19T06:39:56;100742.91;;;1.84;40.52
51315;BME280;65787;59.922;10.742;2023-11-19T06:42:21;100732.31;;;1.84;40.30
51315;BME280;65787;59.922;10.742;2023-11-19T06:44:47;100735.81;;;1.85;40.43
51315;BME280;65787;59.922;10.742;2023-11-19T06:47:12;100746.16;;;1.88;40.29
51315;BME280;65787;59.922;10.742;2023-11-19T06:49:37;100739.72;;;1.90;40.35
51315;BME280;65787;59.922;10.742;2023-11-19T06:52:04;100742.91;;;1.84;40.30
51315;BME280;65787;59.922;10.742;2023-11-19T06:54:29;100735.34;;;1.80;40.38
51315;BME280;65787;59.922;10.742;2023-11-19T06:56:55;100743.75;;;1.85;40.56
51315;BME280;65787;59.922;10.742;2023-11-19T06:59:20;100740.84;;;1.88;40.47
51315;BME280;65787;59.922;10.742;2023-11-19T07:01:46;100743.50;;;1.88;40.98
51315;BME280;65787;59.922;10.742;2023-11-19T07:04:11;100742.50;;;1.89;40.25
51315;BME280;65787;59.922;10.742;2023-11-19T07:06:37;100751.28;;;1.89;40.63
51315;BME280;65787;59.922;10.742;2023-11-19T07:09:03;100744.06;;;1.91;40.38
51315;BME280;65787;59.922;10.742;2023-11-19T07:11:38;100744.31;;;1.88;40.52
51315;BME280;65787;59.922;10.742;2023-11-19T07:14:04;100741.03;;;1.96;40.92
51315;BME280;65787;59.922;10.742;2023-11-19T07:16:29;100738.38;;;1.96;40.39
51315;BME280;65787;59.922;10.742;2023-11-19T07:18:54;100733.78;;;1.98;41.03
51315;BME280;65787;59.922;10.742;2023-11-19T07:21:20;100747.34;;;2.05;40.86
51315;BME280;65787;59.922;10.742;2023-11-19T07:23:45;100751.78;;;2.04;40.68
51315;BME280;65787;59.922;10.742;2023-11-19T07:26:12;100750.44;;;2.10;40.92
51315;BME280;65787;59.922;10.742;2023-11-19T07:28:37;100746.81;;;2.11;40.36
51315;BME280;65787;59.922;10.742;2023-11-19T07:31:05;100746.69;;;2.12;40.53
51315;BME280;65787;59.922;10.742;2023-11-19T07:33:32;100746.44;;;2.16;40.85
51315;BME280;65787;59.922;10.742;2023-11-19T07:35:58;100740.84;;;2.19;40.42
51315;BME280;65787;59.922;10.742;2023-11-19T07:38:23;100739.47;;;2.24;40.35
51315;BME280;65787;59.922;10.742;2023-11-19T07:40:48;100744.53;;;2.27;41.02
51315;BME280;65787;59.922;10.742;2023-11-19T07:43:14;100741.03;;;2.27;40.46
51315;BME280;65787;59.922;10.742;2023-11-19T07:45:39;100738.41;;;2.27;40.34
51315;BME280;65787;59.922;10.742;2023-11-19T07:48:04;100735.59;;;2.28;40.93
51315;BME280;65787;59.922;10.742;2023-11-19T07:50:31;100740.88;;;2.28;40.77
51315;BME280;65787;59.922;10.742;2023-11-19T07:52:56;100739.81;;;2.31;40.96
51315;BME280;65787;59.922;10.742;2023-11-19T07:55:22;100741.22;;;2.35;40.89
51315;BME280;65787;59.922;10.742;2023-11-19T07:57:47;100747.22;;;2.37;40.89
51315;BME280;65787;59.922;10.742;2023-11-19T08:00:14;100738.31;;;2.38;40.77
51315;BME280;65787;59.922;10.742;2023-11-19T08:02:39;100744.31;;;2.40;41.01
51315;BME280;65787;59.922;10.742;2023-11-19T08:05:04;100748.22;;;2.46;41.09
51315;BME280;65787;59.922;10.742;2023-11-19T08:07:31;100744.59;;;2.47;40.22
51315;BME280;65787;59.922;10.742;2023-11-19T08:09:57;100746.16;;;2.49;40.57
51315;BME280;65787;59.922;10.742;2023-11-19T08:12:22;100737.06;;;2.52;40.94
51315;BME280;65787;59.922;10.742;2023-11-19T08:14:48;100738.91;;;2.51;40.58
51315;BME280;65787;59.922;10.742;2023-11-19T08:17:14;100733.72;;;2.50;40.54
51315;BME280;65787;59.922;10.742;2023-11-19T08:19:39;100730.81;;;2.53;40.57
51315;BME280;65787;59.922;10.742;2023-11-19T08:22:05;100728.75;;;2.57;40.50
51315;BME280;65787;59.922;10.742;2023-11-19T08:24:30;100727.75;;;2.58;40.45
51315;BME280;65787;59.922;10.742;2023-11-19T08:26:55;100730.97;;;2.61;40.27
51315;BME280;65787;59.922;10.742;2023-11-19T08:29:21;100732.53;;;2.64;40.21
51315;BME280;65787;59.922;10.742;2023-11-19T08:31:46;100729.72;;;2.65;40.15
51315;BME280;65787;59.922;10.742;2023-11-19T08:34:12;100723.19;;;2.69;40.51
51315;BME280;65787;59.922;10.742;2023-11-19T08:36:37;100724.72;;;2.72;40.81
51315;BME280;65787;59.922;10.742;2023-11-19T08:39:03;100714.25;;;2.70;39.98
51315;BME280;65787;59.922;10.742;2023-11-19T08:41:28;100706.03;;;2.74;40.21
51315;BME280;65787;59.922;10.742;2023-11-19T08:43:53;100704.19;;;2.74;40.56
51315;BME280;65787;59.922;10.742;2023-11-19T08:46:19;100704.91;;;2.76;40.73
51315;BME280;65787;59.922;10.742;2023-11-19T08:48:44;100703.38;;;2.83;41.00
51315;BME280;65787;59.922;10.742;2023-11-19T08:51:11;100703.81;;;2.79;40.17
51315;BME280;65787;59.922;10.742;2023-11-19T08:53:36;100694.72;;;2.81;40.61
51315;BME280;65787;59.922;10.742;2023-11-19T08:56:01;100702.13;;;2.87;40.51
51315;BME280;65787;59.922;10.742;2023-11-19T08:58:28;100694.88;;;2.89;40.00
51315;BME280;65787;59.922;10.742;2023-11-19T09:00:53;100669.91;;;2.82;40.73
51315;BME280;65787;59.922;10.742;2023-11-19T09:03:18;100682.59;;;2.88;40.76
51315;BME280;65787;59.922;10.742;2023-11-19T09:05:45;100686.34;;;2.86;40.25
51315;BME280;65787;59.922;10.742;2023-11-19T09:08:10;100679.38;;;2.95;40.96
51315;BME280;65787;59.922;10.742;2023-11-19T09:10:37;100680.94;;;2.97;40.65
51315;BME280;65787;59.922;10.742;2023-11-19T09:13:02;100685.13;;;3.00;40.62
51315;BME280;65787;59.922;10.742;2023-11-19T09:15:27;100684.00;;;3.02;39.92
51315;BME280;65787;59.922;10.742;2023-11-19T09:17:52;100676.03;;;3.02;40.29
51315;BME280;65787;59.922;10.742;2023-11-19T09:20:18;100672.53;;;3.02;40.77
51315;BME280;65787;59.922;10.742;2023-11-19T09:22:43;100678.97;;;3.09;40.56
51315;BME280;65787;59.922;10.742;2023-11-19T09:25:08;100666.25;;;3.13;40.33
51315;BME280;65787;59.922;10.742;2023-11-19T09:27:34;100662.47;;;3.15;40.85
51315;BME280;65787;59.922;10.742;2023-11-19T09:29:59;100661.06;;;3.21;40.00
51315;BME280;65787;59.922;10.742;2023-11-19T09:32:25;100646.72;;;3.23;40.58
51315;BME280;65787;59.922;10.742;2023-11-19T09:34:50;100642.22;;;3.24;40.03
51315;BME280;65787;59.922;10.742;2023-11-19T09:37:16;100643.38;;;3.21;39.70
51315;BME280;65787;59.922;10.742;2023-11-19T09:39:41;100645.56;;;3.26;40.03
51315;BME280;65787;59.922;10.742;2023-11-19T09:42:09;100636.66;;;3.27;40.42
51315;BME280;65787;59.922;10.742;2023-11-19T09:44:34;100641.78;;;3.28;40.48
51315;BME280;65787;59.922;10.742;2023-11-19T09:46:59;100632.59;;;3.33;40.20
51315;BME280;65787;59.922;10.742;2023-11-19T09:49:25;100627.66;;;3.38;40.16
51315;BME280;65787;59.922;10.742;2023-11-19T09:51:51;100632.69;;;3.41;40.02
51315;BME280;65787;59.922;10.742;2023-11-19T09:54:17;100625.56;;;3.41;40.17
51315;BME280;65787;59.922;10.742;2023-11-19T09:56:42;100629.09;;;3.42;40.23
51315;BME280;65787;59.922;10.742;2023-11-19T09:59:08;100628.78;;;3.45;39.96
51315;BME280;65787;59.922;10.742;2023-11-19T10:01:36;100627.94;;;3.44;39.56
51315;BME280;65787;59.922;10.742;2023-11-19T10:04:01;100632.97;;;3.47;39.96
51315;BME280;65787;59.922;10.742;2023-11-19T10:06:27;100633.53;;;3.51;39.56
51315;BME280;65787;59.922;10.742;2023-11-19T10:08:53;100631.56;;;3.53;39.20
51315;BME280;65787;59.922;10.742;2023-11-19T10:11:18;100633.22;;;3.54;39.59
51315;BME280;65787;59.922;10.742;2023-11-19T10:13:44;100625.66;;;3.59;39.55
51315;BME280;65787;59.922;10.742;2023-11-19T10:16:12;100629.84;;;3.62;39.96
51315;BME280;65787;59.922;10.742;2023-11-19T10:18:42;100630.13;;;3.68;39.87
51315;BME280;65787;59.922;10.742;2023-11-19T10:21:10;100624.81;;;3.68;39.79
51315;BME280;65787;59.922;10.742;2023-11-19T10:23:51;100617.81;;;3.67;39.36
51315;BME280;65787;59.922;10.742;2023-11-19T10:26:17;100618.91;;;3.75;39.88
51315;BME280;65787;59.922;10.742;2023-11-19T10:28:42;100612.03;;;3.82;39.93
51315;BME280;65787;59.922;10.742;2023-11-19T10:31:10;100609.63;;;3.88;39.28
51315;BME280;65787;59.922;10.742;2023-11-19T10:33:36;100603.19;;;3.91;39.48
51315;BME280;65787;59.922;10.742;2023-11-19T10:36:01;100599.38;;;3.94;39.91
51315;BME280;65787;59.922;10.742;2023-11-19T10:38:26;100607.91;;;3.97;39.73
51315;BME280;65787;59.922;10.742;2023-11-19T10:40:52;100603.66;;;4.04;39.71
51315;BME280;65787;59.922;10.742;2023-11-19T10:43:18;100605.75;;;4.11;39.96
51315;BME280;65787;59.922;10.742;2023-11-19T10:45:44;100608.09;;;4.14;39.15
51315;BME280;65787;59.922;10.742;2023-11-19T10:48:09;100606.31;;;4.14;39.44
51315;BME280;65787;59.922;10.742;2023-11-19T10:50:38;100609.31;;;4.19;39.60
51315;BME280;65787;59.922;10.742;2023-11-19T10:53:04;100609.03;;;4.22;39.74
51315;BME280;65787;59.922;10.742;2023-11-19T10:55:31;100608.28;;;4.30;40.01
51315;BME280;65787;59.922;10.742;2023-11-19T10:58:00;100608.00;;;4.33;38.74
51315;BME280;65787;59.922;10.742;2023-11-19T11:00:26;100603.06;;;4.38;38.70
51315;BME280;65787;59.922;10.742;2023-11-19T11:02:55;100597.44;;;4.41;39.09
51315;BME280;65787;59.922;10.742;2023-11-19T11:05:22;100596.16;;;4.45;38.80
51315;BME280;65787;59.922;10.742;2023-11-19T11:07:47;100598.38;;;4.50;39.73
51315;BME280;65787;59.922;10.742;2023-11-19T11:10:13;100589.91;;;4.55;39.20
51315;BME280;65787;59.922;10.742;2023-11-19T11:12:41;100595.91;;;4.57;39.67
51315;BME280;65787;59.922;10.742;2023-11-19T11:15:06;100597.31;;;4.61;39.51
51315;BME280;65787;59.922;10.742;2023-11-19T11:17:33;100588.47;;;4.60;39.33
51315;BME280;65787;59.922;10.742;2023-11-19T11:19:59;100577.31;;;4.57;38.87
51315;BME280;65787;59.922;10.742;2023-11-19T11:22:24;100577.00;;;4.60;39.27
51315;BME280;65787;59.922;10.742;2023-11-19T11:37:53;100569.41;;;4.65;39.37
51315;BME280;65787;59.922;10.742;2023-11-19T11:40:21;100565.75;;;4.66;39.24
51315;BME280;65787;59.922;10.742;2023-11-19T11:42:48;100557.09;;;4.64;38.87
51315;BME280;65787;59.922;10.742;2023-11-19T11:45:14;100562.94;;;4.68;39.01
51315;BME280;65787;59.922;10.742;2023-11-19T11:50:11;100556.94;;;4.65;38.87
51315;BME280;65787;59.922;10.742;2023-11-19T11:55:27;100558.47;;;4.68;39.46
51315;BME280;65787;59.922;10.742;2023-11-19T11:57:53;100557.63;;;4.68;39.54
51315;BME280;65787;59.922;10.742;2023-11-19T12:00:22;100545.34;;;4.67;38.90
51315;BME280;65787;59.922;10.742;2023-11-19T12:02:51;100545.34;;;4.67;39.30
51315;BME280;65787;59.922;10.742;2023-11-19T12:05:16;100536.81;;;4.63;39.22
51315;BME280;65787;59.922;10.742;2023-11-19T12:07:44;100541.81;;;4.66;38.41
51315;BME280;65787;59.922;10.742;2023-11-19T12:10:19;100548.28;;;4.63;39.88
51315;BME280;65787;59.922;10.742;2023-11-19T12:12:46;100544.81;;;4.63;39.74
51315;BME280;65787;59.922;10.742;2023-11-19T12:15:12;100550.66;;;4.67;39.87
51315;BME280;65787;59.922;10.742;2023-11-19T12:20:09;100539.00;;;4.68;39.07
51315;BME280;65787;59.922;10.742;2023-11-19T12:22:39;100538.31;;;4.65;38.95
51315;BME280;65787;59.922;10.742;2023-11-19T12:25:08;100541.47;;;4.61;38.97
51315;BME280;65787;59.922;10.742;2023-11-19T12:27:34;100538.13;;;4.59;38.96
51315;BME280;65787;59.922;10.742;2023-11-19T12:30:00;100526.19;;;4.63;39.07
51315;BME280;65787;59.922;10.742;2023-11-19T12:32:25;100524.34;;;4.63;38.93
51315;BME280;65787;59.922;10.742;2023-11-19T12:34:51;100527.69;;;4.65;39.44
51315;BME280;65787;59.922;10.742;2023-11-19T12:37:16;100521.91;;;4.70;39.69
51315;BME280;65787;59.922;10.742;2023-11-19T12:39:42;100522.59;;;4.72;39.78
51315;BME280;65787;59.922;10.742;2023-11-19T12:42:08;100521.06;;;4.70;39.07
51315;BME280;65787;59.922;10.742;2023-11-19T12:44:33;100514.78;;;4.71;40.50
51315;BME280;65787;59.922;10.742;2023-11-19T12:49:25;100524.34;;;4.63;39.55
51315;BME280;65787;59.922;10.742;2023-11-19T12:51:50;100517.19;;;4.64;39.11
51315;BME280;65787;59.922;10.742;2023-11-19T12:54:16;100515.53;;;4.63;39.47
51315;BME280;65787;59.922;10.742;2023-11-19T12:56:51;100523.53;;;4.63;39.06
51315;BME280;65787;59.922;10.742;2023-11-19T12:59:17;100513.03;;;4.61;39.82
51315;BME280;65787;59.922;10.742;2023-11-19T13:01:53;100510.91;;;4.65;40.47
51315;BME280;65787;59.922;10.742;2023-11-19T13:04:19;100506.41;;;4.65;39.34
51315;BME280;65787;59.922;10.742;2023-11-19T13:06:45;100497.59;;;4.65;39.49